sensor_id;sensor_type;location;lat;lon;timestamp;temperature;humidity
28159;DHT22;15447;50.828;4.406;2023-10-08T05:30:47;16.20;99.90
28159;DHT22;15447;50.828;4.406;2023-10-08T05:33:20;16.20;99.90
28159;DHT22;15447;50.828;4.406;2023-10-08T05:35:51;16.10;99.90
28159;DHT22;15447;50.828;4.406;2023-10-08T05:38:21;16.20;99.90
28159;DHT22;15447;50.828;4.406;2023-10-08T05:40:56;16.20;99.90
28159;DHT22;15447;50.828;4.406;2023-10-08T05:43:29;16.20;99.90
28159;DHT22;15447;50.828;4.406;2023-10-08T05:46:05;16.20;99.90
28159;DHT22;15447;50.828;4.406;2023-10-08T05:48:58;16.10;99.90
28159;DHT22;15447;50.828;4.406;2023-10-08T05:51:29;16.10;99.90
28159;DHT22;15447;50.828;4.406;2023-10-08T05:54:24;16.10;99.90
28159;DHT22;15447;50.828;4.406;2023-10-08T05:59:49;16.10;99.90
28159;DHT22;15447;50.828;4.406;2023-10-08T06:02:20;16.10;99.90
28159;DHT22;15447;50.828;4.406;2023-10-08T06:05:08;16.10;99.90
28159;DHT22;15447;50.828;4.406;2023-10-08T06:07:41;16.20;99.90
28159;DHT22;15447;50.828;4.406;2023-10-08T06:10:28;16.20;99.90
28159;DHT22;15447;50.828;4.406;2023-10-08T06:13:09;16.30;99.90
28159;DHT22;15447;50.828;4.406;2023-10-08T06:15:50;16.30;99.90
28159;DHT22;15447;50.828;4.406;2023-10-08T06:18:59;16.30;99.90
28159;DHT22;15447;50.828;4.406;2023-10-08T06:21:25;16.40;99.90
28159;DHT22;15447;50.828;4.406;2023-10-08T06:23:54;16.50;99.90
28159;DHT22;15447;50.828;4.406;2023-10-08T06:26:21;16.50;99.90
28159;DHT22;15447;50.828;4.406;2023-10-08T06:28:49;16.60;99.90
28159;DHT22;15447;50.828;4.406;2023-10-08T06:31:15;16.70;99.90
28159;DHT22;15447;50.828;4.406;2023-10-08T06:33:50;16.80;99.90
28159;DHT22;15447;50.828;4.406;2023-10-08T06:36:18;17.00;99.90
28159;DHT22;15447;50.828;4.406;2023-10-08T06:38:49;17.10;99.90
28159;DHT22;15447;50.828;4.406;2023-10-08T06:41:15;17.30;99.90
28159;DHT22;15447;50.828;4.406;2023-10-08T06:43:49;17.40;99.90
28159;DHT22;15447;50.828;4.406;2023-10-08T06:46:17;17.60;99.90
28159;DHT22;15447;50.828;4.406;2023-10-08T06:48:47;17.80;99.90
28159;DHT22;15447;50.828;4.406;2023-10-08T06:51:15;18.10;99.90
28159;DHT22;15447;50.828;4.406;2023-10-08T06:53:45;18.40;99.90
28159;DHT22;15447;50.828;4.406;2023-10-08T06:56:11;18.60;99.90
28159;DHT22;15447;50.828;4.406;2023-10-08T06:58:39;18.80;99.90
28159;DHT22;15447;50.828;4.406;2023-10-08T07:01:05;19.10;99.90
28159;DHT22;15447;50.828;4.406;2023-10-08T07:03:31;19.40;99.90
28159;DHT22;15447;50.828;4.406;2023-10-08T07:05:59;19.70;99.90
28159;DHT22;15447;50.828;4.406;2023-10-08T07:08:30;20.00;99.90
28159;DHT22;15447;50.828;4.406;2023-10-08T07:10:57;20.40;99.90
28159;DHT22;15447;50.828;4.406;2023-10-08T07:13:24;21.00;99.90
28159;DHT22;15447;50.828;4.406;2023-10-08T07:15:51;21.40;99.90
28159;DHT22;15447;50.828;4.406;2023-10-08T07:18:18;22.00;99.90
28159;DHT22;15447;50.828;4.406;2023-10-08T07:20:52;22.50;99.90
28159;DHT22;15447;50.828;4.406;2023-10-08T07:23:21;22.90;99.90
28159;DHT22;15447;50.828;4.406;2023-10-08T07:25:57;23.10;99.90
28159;DHT22;15447;50.828;4.406;2023-10-08T07:28:46;23.30;99.90
28159;DHT22;15447;50.828;4.406;2023-10-08T07:31:17;23.50;99.90
28159;DHT22;15447;50.828;4.406;2023-10-08T07:33:51;23.70;99.90
28159;DHT22;15447;50.828;4.406;2023-10-08T07:36:25;23.40;99.90
28159;DHT22;15447;50.828;4.406;2023-10-08T07:38:54;22.70;99.90
28159;DHT22;15447;50.828;4.406;2023-10-08T07:41:20;22.30;99.90
28159;DHT22;15447;50.828;4.406;2023-10-08T07:43:57;22.50;99.90
28159;DHT22;15447;50.828;4.406;2023-10-08T07:46:27;23.10;99.90
28159;DHT22;15447;50.828;4.406;2023-10-08T07:48:55;23.80;99.90
28159;DHT22;15447;50.828;4.406;2023-10-08T07:51:25;24.30;99.90
28159;DHT22;15447;50.828;4.406;2023-10-08T07:53:53;24.70;99.90
28159;DHT22;15447;50.828;4.406;2023-10-08T07:56:22;25.00;99.90
28159;DHT22;15447;50.828;4.406;2023-10-08T07:59:08;25.10;99.90
28159;DHT22;15447;50.828;4.406;2023-10-08T08:01:38;25.40;99.90
28159;DHT22;15447;50.828;4.406;2023-10-08T08:04:06;25.70;99.90
28159;DHT22;15447;50.828;4.406;2023-10-08T08:06:38;26.10;99.90
28159;DHT22;15447;50.828;4.406;2023-10-08T08:09:14;26.50;99.10
28159;DHT22;15447;50.828;4.406;2023-10-08T08:11:50;26.80;98.30
28159;DHT22;15447;50.828;4.406;2023-10-08T08:14:26;27.10;97.60
28159;DHT22;15447;50.828;4.406;2023-10-08T08:16:59;27.30;96.90
28159;DHT22;15447;50.828;4.406;2023-10-08T08:22:43;27.30;96.50
28159;DHT22;15447;50.828;4.406;2023-10-08T08:25:18;27.50;96.20
28159;DHT22;15447;50.828;4.406;2023-10-08T08:28:00;27.60;96.00
28159;DHT22;15447;50.828;4.406;2023-10-08T08:30:25;27.90;95.60
28159;DHT22;15447;50.828;4.406;2023-10-08T08:32:52;28.20;95.30
28159;DHT22;15447;50.828;4.406;2023-10-08T08:35:19;28.60;94.60
28159;DHT22;15447;50.828;4.406;2023-10-08T08:37:46;29.10;93.90
28159;DHT22;15447;50.828;4.406;2023-10-08T08:40:35;29.30;93.30
28159;DHT22;15447;50.828;4.406;2023-10-08T08:43:13;29.60;92.90
28159;DHT22;15447;50.828;4.406;2023-10-08T08:45:42;29.90;92.30
28159;DHT22;15447;50.828;4.406;2023-10-08T08:48:17;30.40;91.90
28159;DHT22;15447;50.828;4.406;2023-10-08T08:50:56;30.80;91.00
28159;DHT22;15447;50.828;4.406;2023-10-08T08:53:47;31.00;90.60
28159;DHT22;15447;50.828;4.406;2023-10-08T08:56:31;30.70;90.60
28159;DHT22;15447;50.828;4.406;2023-10-08T09:01:46;30.50;90.90
28159;DHT22;15447;50.828;4.406;2023-10-08T09:04:13;30.40;90.80
28159;DHT22;15447;50.828;4.406;2023-10-08T09:06:53;30.40;91.00
28159;DHT22;15447;50.828;4.406;2023-10-08T09:09:47;30.90;90.60
28159;DHT22;15447;50.828;4.406;2023-10-08T09:12:16;31.50;89.70
28159;DHT22;15447;50.828;4.406;2023-10-08T09:15:05;31.80;89.10
28159;DHT22;15447;50.828;4.406;2023-10-08T09:17:41;31.70;89.20
28159;DHT22;15447;50.828;4.406;2023-10-08T09:20:55;31.50;89.30
28159;DHT22;15447;50.828;4.406;2023-10-08T09:23:26;31.50;89.20
28159;DHT22;15447;50.828;4.406;2023-10-08T09:25:54;31.50;89.10
28159;DHT22;15447;50.828;4.406;2023-10-08T09:28:31;31.50;88.80
28159;DHT22;15447;50.828;4.406;2023-10-08T09:31:04;31.50;88.90
28159;DHT22;15447;50.828;4.406;2023-10-08T09:33:33;31.40;88.80
28159;DHT22;15447;50.828;4.406;2023-10-08T09:35:59;31.40;88.90
28159;DHT22;15447;50.828;4.406;2023-10-08T09:38:31;31.00;88.90
28159;DHT22;15447;50.828;4.406;2023-10-08T09:41:02;30.80;89.90
28159;DHT22;15447;50.828;4.406;2023-10-08T09:43:31;30.70;90.10
28159;DHT22;15447;50.828;4.406;2023-10-08T09:46:18;30.70;90.00
28159;DHT22;15447;50.828;4.406;2023-10-08T09:48:50;30.80;90.10
28159;DHT22;15447;50.828;4.406;2023-10-08T09:51:21;30.90;90.20
28159;DHT22;15447;50.828;4.406;2023-10-08T09:54:15;31.40;89.60
28159;DHT22;15447;50.828;4.406;2023-10-08T09:56:58;32.00;88.10
28159;DHT22;15447;50.828;4.406;2023-10-08T09:59:25;33.00;86.80
28159;DHT22;15447;50.828;4.406;2023-10-08T10:01:55;33.80;85.50
28159;DHT22;15447;50.828;4.406;2023-10-08T10:04:25;34.70;82.30
28159;DHT22;15447;50.828;4.406;2023-10-08T10:06:51;35.10;80.10
28159;DHT22;15447;50.828;4.406;2023-10-08T10:09:25;35.30;79.60
28159;DHT22;15447;50.828;4.406;2023-10-08T10:12:06;35.30;79.20
28159;DHT22;15447;50.828;4.406;2023-10-08T10:14:46;35.60;78.40
28159;DHT22;15447;50.828;4.406;2023-10-08T10:17:41;35.90;76.90
28159;DHT22;15447;50.828;4.406;2023-10-08T10:20:12;35.60;76.90
28159;DHT22;15447;50.828;4.406;2023-10-08T10:22:42;35.40;77.00
28159;DHT22;15447;50.828;4.406;2023-10-08T10:25:15;34.90;77.60
28159;DHT22;15447;50.828;4.406;2023-10-08T10:30:27;34.40;79.20
28159;DHT22;15447;50.828;4.406;2023-10-08T10:32:59;34.70;79.30
28159;DHT22;15447;50.828;4.406;2023-10-08T10:42:00;33.60;81.00
28159;DHT22;15447;50.828;4.406;2023-10-08T10:44:42;34.00;80.50
28159;DHT22;15447;50.828;4.406;2023-10-08T10:47:18;35.00;78.90
28159;DHT22;15447;50.828;4.406;2023-10-08T10:53:24;34.80;78.00
28159;DHT22;15447;50.828;4.406;2023-10-08T10:55:53;34.20;79.10
28159;DHT22;15447;50.828;4.406;2023-10-08T10:58:30;34.10;79.50
28159;DHT22;15447;50.828;4.406;2023-10-08T11:01:06;34.10;79.90
28159;DHT22;15447;50.828;4.406;2023-10-08T11:03:58;34.40;79.20
28159;DHT22;15447;50.828;4.406;2023-10-08T11:06:27;34.30;78.60
28159;DHT22;15447;50.828;4.406;2023-10-08T11:08:53;34.10;78.70
28159;DHT22;15447;50.828;4.406;2023-10-08T11:11:26;33.80;79.20
28159;DHT22;15447;50.828;4.406;2023-10-08T11:13:59;33.40;80.90
28159;DHT22;15447;50.828;4.406;2023-10-08T11:16:27;33.80;80.60
28159;DHT22;15447;50.828;4.406;2023-10-08T11:18:53;34.50;79.70
28159;DHT22;15447;50.828;4.406;2023-10-08T11:21:26;35.30;78.10
28159;DHT22;15447;50.828;4.406;2023-10-08T11:23:56;36.00;76.60
28159;DHT22;15447;50.828;4.406;2023-10-08T11:26:25;35.90;75.80
28159;DHT22;15447;50.828;4.406;2023-10-08T11:29:01;36.10;75.00
28159;DHT22;15447;50.828;4.406;2023-10-08T11:31:29;36.60;74.20
28159;DHT22;15447;50.828;4.406;2023-10-08T11:34:04;36.60;73.10
28159;DHT22;15447;50.828;4.406;2023-10-08T11:36:38;36.50;73.10
28159;DHT22;15447;50.828;4.406;2023-10-08T11:39:18;36.60;72.30
28159;DHT22;15447;50.828;4.406;2023-10-08T11:42:00;36.40;72.50
28159;DHT22;15447;50.828;4.406;2023-10-08T11:44:48;36.60;72.50
28159;DHT22;15447;50.828;4.406;2023-10-08T11:47:17;36.80;71.70
28159;DHT22;15447;50.828;4.406;2023-10-08T11:49:46;36.40;70.40
28159;DHT22;15447;50.828;4.406;2023-10-08T11:52:19;36.20;71.20
28159;DHT22;15447;50.828;4.406;2023-10-08T11:54:49;36.20;71.50
28159;DHT22;15447;50.828;4.406;2023-10-08T11:57:17;36.50;70.60
28159;DHT22;15447;50.828;4.406;2023-10-08T11:59:47;36.70;70.40
28159;DHT22;15447;50.828;4.406;2023-10-08T12:02:12;36.50;70.20
28159;DHT22;15447;50.828;4.406;2023-10-08T12:04:42;36.40;70.40
28159;DHT22;15447;50.828;4.406;2023-10-08T12:07:10;36.60;70.20
28159;DHT22;15447;50.828;4.406;2023-10-08T12:09:36;36.80;69.70
28159;DHT22;15447;50.828;4.406;2023-10-08T12:12:05;37.10;70.00
28159;DHT22;15447;50.828;4.406;2023-10-08T12:14:41;37.00;68.70
28159;DHT22;15447;50.828;4.406;2023-10-08T12:17:09;36.50;67.80
28159;DHT22;15447;50.828;4.406;2023-10-08T12:19:41;36.10;69.40
28159;DHT22;15447;50.828;4.406;2023-10-08T12:22:08;35.90;69.60
28159;DHT22;15447;50.828;4.406;2023-10-08T12:24:34;35.70;69.70
28159;DHT22;15447;50.828;4.406;2023-10-08T12:27:00;35.70;69.30
28159;DHT22;15447;50.828;4.406;2023-10-08T12:29:28;35.50;69.50
28159;DHT22;15447;50.828;4.406;2023-10-08T12:31:54;35.80;69.40
28159;DHT22;15447;50.828;4.406;2023-10-08T12:34:19;35.90;68.10
28159;DHT22;15447;50.828;4.406;2023-10-08T12:36:48;35.80;68.70
28159;DHT22;15447;50.828;4.406;2023-10-08T12:39:14;35.90;67.60
28159;DHT22;15447;50.828;4.406;2023-10-08T12:41:43;36.10;66.60
28159;DHT22;15447;50.828;4.406;2023-10-08T12:44:13;36.10;67.50
28159;DHT22;15447;50.828;4.406;2023-10-08T12:46:41;36.10;67.50
28159;DHT22;15447;50.828;4.406;2023-10-08T12:49:09;35.80;67.30
28159;DHT22;15447;50.828;4.406;2023-10-08T12:51:35;35.80;67.70
28159;DHT22;15447;50.828;4.406;2023-10-08T12:54:06;35.80;68.40
28159;DHT22;15447;50.828;4.406;2023-10-08T12:56:36;35.80;67.80
28159;DHT22;15447;50.828;4.406;2023-10-08T12:59:10;35.90;67.50
28159;DHT22;15447;50.828;4.406;2023-10-08T13:01:45;35.90;67.30
28159;DHT22;15447;50.828;4.406;2023-10-08T13:04:19;35.50;67.40
28159;DHT22;15447;50.828;4.406;2023-10-08T13:06:53;35.00;68.80
28159;DHT22;15447;50.828;4.406;2023-10-08T13:09:22;35.00;69.10
28159;DHT22;15447;50.828;4.406;2023-10-08T13:11:48;34.90;69.00
28159;DHT22;15447;50.828;4.406;2023-10-08T13:14:16;35.10;68.10
28159;DHT22;15447;50.828;4.406;2023-10-08T13:16:42;35.20;68.10
28159;DHT22;15447;50.828;4.406;2023-10-08T13:19:10;35.70;67.50
28159;DHT22;15447;50.828;4.406;2023-10-08T13:21:36;36.20;66.30
28159;DHT22;15447;50.828;4.406;2023-10-08T13:24:02;36.50;66.00
28159;DHT22;15447;50.828;4.406;2023-10-08T13:26:30;36.60;65.80
28159;DHT22;15447;50.828;4.406;2023-10-08T13:29:00;36.60;64.80
28159;DHT22;15447;50.828;4.406;2023-10-08T13:31:26;36.50;63.20
28159;DHT22;15447;50.828;4.406;2023-10-08T13:33:52;36.30;62.90
28159;DHT22;15447;50.828;4.406;2023-10-08T13:36:21;35.80;64.00
28159;DHT22;15447;50.828;4.406;2023-10-08T13:38:47;35.80;64.60
28159;DHT22;15447;50.828;4.406;2023-10-08T13:41:13;35.60;64.40
28159;DHT22;15447;50.828;4.406;2023-10-08T13:43:43;35.00;65.30
28159;DHT22;15447;50.828;4.406;2023-10-08T13:46:17;34.80;66.80
28159;DHT22;15447;50.828;4.406;2023-10-08T13:48:46;34.20;66.00
28159;DHT22;15447;50.828;4.406;2023-10-08T13:51:14;34.00;66.40
28159;DHT22;15447;50.828;4.406;2023-10-08T13:53:48;33.80;67.80
28159;DHT22;15447;50.828;4.406;2023-10-08T13:56:18;33.60;68.10
28159;DHT22;15447;50.828;4.406;2023-10-08T13:58:46;33.70;69.30
28159;DHT22;15447;50.828;4.406;2023-10-08T14:01:15;33.90;68.70
28159;DHT22;15447;50.828;4.406;2023-10-08T14:03:50;33.90;68.10
28159;DHT22;15447;50.828;4.406;2023-10-08T14:06:22;33.90;68.00
28159;DHT22;15447;50.828;4.406;2023-10-08T14:08:48;34.00;68.10
28159;DHT22;15447;50.828;4.406;2023-10-08T14:11:20;33.60;69.00
28159;DHT22;15447;50.828;4.406;2023-10-08T14:13:51;33.30;69.60
28159;DHT22;15447;50.828;4.406;2023-10-08T14:16:19;32.80;71.10
28159;DHT22;15447;50.828;4.406;2023-10-08T14:18:50;32.70;71.70
28159;DHT22;15447;50.828;4.406;2023-10-08T14:21:19;32.40;73.10
28159;DHT22;15447;50.828;4.406;2023-10-08T14:23:51;32.10;72.50
28159;DHT22;15447;50.828;4.406;2023-10-08T14:26:22;32.00;74.00
28159;DHT22;15447;50.828;4.406;2023-10-08T14:28:49;32.10;73.60
28159;DHT22;15447;50.828;4.406;2023-10-08T14:31:24;31.80;73.70
28159;DHT22;15447;50.828;4.406;2023-10-08T14:33:52;31.60;75.00
28159;DHT22;15447;50.828;4.406;2023-10-08T14:36:24;31.30;75.10
28159;DHT22;15447;50.828;4.406;2023-10-08T14:39:11;31.00;76.40
28159;DHT22;15447;50.828;4.406;2023-10-08T14:42:15;30.70;77.20
28159;DHT22;15447;50.828;4.406;2023-10-08T14:44:59;30.50;77.90
28159;DHT22;15447;50.828;4.406;2023-10-08T14:47:26;30.50;78.50
28159;DHT22;15447;50.828;4.406;2023-10-08T14:49:52;30.80;78.20
28159;DHT22;15447;50.828;4.406;2023-10-08T14:52:18;31.00;77.80
28159;DHT22;15447;50.828;4.406;2023-10-08T14:54:44;30.70;78.00
28159;DHT22;15447;50.828;4.406;2023-10-08T14:57:13;30.20;78.80
28159;DHT22;15447;50.828;4.406;2023-10-08T14:59:40;29.70;80.00
28159;DHT22;15447;50.828;4.406;2023-10-08T15:02:07;29.40;81.30
28159;DHT22;15447;50.828;4.406;2023-10-08T15:04:33;29.00;82.80
28159;DHT22;15447;50.828;4.406;2023-10-08T15:07:03;28.60;84.00
28159;DHT22;15447;50.828;4.406;2023-10-08T15:09:29;28.30;84.70
28159;DHT22;15447;50.828;4.406;2023-10-08T15:11:58;28.10;86.00
28159;DHT22;15447;50.828;4.406;2023-10-08T15:14:24;27.90;87.10
28159;DHT22;15447;50.828;4.406;2023-10-08T15:16:53;27.70;87.60
28159;DHT22;15447;50.828;4.406;2023-10-08T15:19:26;27.50;88.30
28159;DHT22;15447;50.828;4.406;2023-10-08T15:21:52;27.20;89.10
28159;DHT22;15447;50.828;4.406;2023-10-08T15:24:19;27.00;90.30
28159;DHT22;15447;50.828;4.406;2023-10-08T15:26:49;26.90;90.40
28159;DHT22;15447;50.828;4.406;2023-10-08T15:29:18;26.90;90.70
28159;DHT22;15447;50.828;4.406;2023-10-08T15:31:53;26.90;90.80
28159;DHT22;15447;50.828;4.406;2023-10-08T15:34:25;26.80;90.90
28159;DHT22;15447;50.828;4.406;2023-10-08T15:36:55;26.80;90.50
28159;DHT22;15447;50.828;4.406;2023-10-08T15:39:22;26.70;90.80
28159;DHT22;15447;50.828;4.406;2023-10-08T15:41:52;26.70;90.90
28159;DHT22;15447;50.828;4.406;2023-10-08T15:44:19;26.60;91.00
28159;DHT22;15447;50.828;4.406;2023-10-08T15:46:48;26.50;90.80
28159;DHT22;15447;50.828;4.406;2023-10-08T15:49:16;26.40;91.10
28159;DHT22;15447;50.828;4.406;2023-10-08T15:51:45;26.40;91.20
28159;DHT22;15447;50.828;4.406;2023-10-08T15:54:12;26.30;91.20
28159;DHT22;15447;50.828;4.406;2023-10-08T15:56:46;26.20;91.50
28159;DHT22;15447;50.828;4.406;2023-10-08T15:59:11;26.00;91.60
28159;DHT22;15447;50.828;4.406;2023-10-08T16:01:37;25.90;92.00
28159;DHT22;15447;50.828;4.406;2023-10-08T16:04:02;25.80;92.20
28159;DHT22;15447;50.828;4.406;2023-10-08T16:06:30;25.70;92.40
28159;DHT22;15447;50.828;4.406;2023-10-08T16:08:55;25.60;92.50
28159;DHT22;15447;50.828;4.406;2023-10-08T16:11:33;25.50;92.80
28159;DHT22;15447;50.828;4.406;2023-10-08T16:14:00;25.40;93.10
28159;DHT22;15447;50.828;4.406;2023-10-08T16:16:25;25.30;93.30
28159;DHT22;15447;50.828;4.406;2023-10-08T16:18:51;25.20;93.50
28159;DHT22;15447;50.828;4.406;2023-10-08T16:21:17;25.20;93.80
28159;DHT22;15447;50.828;4.406;2023-10-08T16:23:46;25.10;93.70
28159;DHT22;15447;50.828;4.406;2023-10-08T16:26:12;25.00;93.90
28159;DHT22;15447;50.828;4.406;2023-10-08T16:28:38;25.00;94.10
28159;DHT22;15447;50.828;4.406;2023-10-08T16:31:04;24.90;94.20
28159;DHT22;15447;50.828;4.406;2023-10-08T16:33:32;24.80;94.20
28159;DHT22;15447;50.828;4.406;2023-10-08T16:35:57;24.80;94.30
28159;DHT22;15447;50.828;4.406;2023-10-08T16:38:24;24.80;94.70
28159;DHT22;15447;50.828;4.406;2023-10-08T16:40:50;24.80;94.60
28159;DHT22;15447;50.828;4.406;2023-10-08T16:43:16;24.60;94.60
28159;DHT22;15447;50.828;4.406;2023-10-08T16:45:45;24.60;94.60
28159;DHT22;15447;50.828;4.406;2023-10-08T16:48:11;24.50;94.60
28159;DHT22;15447;50.828;4.406;2023-10-08T16:50:43;24.50;95.00
28159;DHT22;15447;50.828;4.406;2023-10-08T16:53:09;24.40;95.10
28159;DHT22;15447;50.828;4.406;2023-10-08T16:55:34;24.40;95.10
28159;DHT22;15447;50.828;4.406;2023-10-08T16:58:00;24.30;95.40
28159;DHT22;15447;50.828;4.406;2023-10-08T17:00:28;24.30;95.70
28159;DHT22;15447;50.828;4.406;2023-10-08T17:02:57;24.20;95.60
28159;DHT22;15447;50.828;4.406;2023-10-08T17:05:33;24.10;95.80
28159;DHT22;15447;50.828;4.406;2023-10-08T17:07:58;24.10;96.00
28159;DHT22;15447;50.828;4.406;2023-10-08T17:10:24;24.00;96.20
28159;DHT22;15447;50.828;4.406;2023-10-08T17:12:56;23.90;96.50
28159;DHT22;15447;50.828;4.406;2023-10-08T17:15:22;23.90;96.60
28159;DHT22;15447;50.828;4.406;2023-10-08T17:17:48;23.80;96.80
28159;DHT22;15447;50.828;4.406;2023-10-08T17:20:14;23.70;97.00
28159;DHT22;15447;50.828;4.406;2023-10-08T17:22:44;23.60;97.20
28159;DHT22;15447;50.828;4.406;2023-10-08T17:25:10;23.60;97.40
28159;DHT22;15447;50.828;4.406;2023-10-08T17:27:36;23.50;97.70
28159;DHT22;15447;50.828;4.406;2023-10-08T17:30:02;23.40;97.90
28159;DHT22;15447;50.828;4.406;2023-10-08T17:32:32;23.30;98.10
28159;DHT22;15447;50.828;4.406;2023-10-08T17:34:58;23.30;98.40
28159;DHT22;15447;50.828;4.406;2023-10-08T17:37:24;23.20;98.50
28159;DHT22;15447;50.828;4.406;2023-10-08T17:39:50;23.10;98.80
28159;DHT22;15447;50.828;4.406;2023-10-08T17:42:17;23.10;99.10
28159;DHT22;15447;50.828;4.406;2023-10-08T17:44:42;23.00;99.40
28159;DHT22;15447;50.828;4.406;2023-10-08T17:47:08;22.90;99.50
28159;DHT22;15447;50.828;4.406;2023-10-08T17:49:35;22.90;99.90
28159;DHT22;15447;50.828;4.406;2023-10-08T17:52:03;22.80;99.90
28159;DHT22;15447;50.828;4.406;2023-10-08T17:54:30;22.70;99.90
28159;DHT22;15447;50.828;4.406;2023-10-08T17:56:58;22.70;99.90
28159;DHT22;15447;50.828;4.406;2023-10-08T17:59:25;22.60;99.90
28159;DHT22;15447;50.828;4.406;2023-10-08T18:01:52;22.60;99.90
28159;DHT22;15447;50.828;4.406;2023-10-08T18:04:18;22.50;99.90
28159;DHT22;15447;50.828;4.406;2023-10-08T18:06:47;22.40;99.90
28159;DHT22;15447;50.828;4.406;2023-10-08T18:09:12;22.40;99.90
28159;DHT22;15447;50.828;4.406;2023-10-08T18:11:38;22.30;99.90
28159;DHT22;15447;50.828;4.406;2023-10-08T18:14:08;22.20;99.90
28159;DHT22;15447;50.828;4.406;2023-10-08T18:16:40;22.20;99.90
28159;DHT22;15447;50.828;4.406;2023-10-08T18:19:09;22.10;99.90
28159;DHT22;15447;50.828;4.406;2023-10-08T18:21:36;22.10;99.90
28159;DHT22;15447;50.828;4.406;2023-10-08T18:24:06;21.90;99.90
28159;DHT22;15447;50.828;4.406;2023-10-08T18:26:33;21.80;99.90
28159;DHT22;15447;50.828;4.406;2023-10-08T18:28:58;21.80;99.90
28159;DHT22;15447;50.828;4.406;2023-10-08T18:31:24;21.70;99.90
28159;DHT22;15447;50.828;4.406;2023-10-08T18:33:52;21.50;99.90
28159;DHT22;15447;50.828;4.406;2023-10-08T18:36:17;21.40;99.90
28159;DHT22;15447;50.828;4.406;2023-10-08T18:38:44;21.40;99.90
28159;DHT22;15447;50.828;4.406;2023-10-08T18:41:10;21.30;99.90
28159;DHT22;15447;50.828;4.406;2023-10-08T18:43:40;21.30;99.90
28159;DHT22;15447;50.828;4.406;2023-10-08T18:46:07;21.20;99.90
28159;DHT22;15447;50.828;4.406;2023-10-08T18:48:38;21.20;99.90
28159;DHT22;15447;50.828;4.406;2023-10-08T18:51:08;21.10;99.90
28159;DHT22;15447;50.828;4.406;2023-10-08T18:53:36;21.10;99.90
28159;DHT22;15447;50.828;4.406;2023-10-08T18:56:09;21.10;99.90
28159;DHT22;15447;50.828;4.406;2023-10-08T18:58:37;21.10;99.90
28159;DHT22;15447;50.828;4.406;2023-10-08T19:01:04;21.00;99.90
28159;DHT22;15447;50.828;4.406;2023-10-08T19:03:32;21.00;99.90
28159;DHT22;15447;50.828;4.406;2023-10-08T19:05:59;21.00;99.90
28159;DHT22;15447;50.828;4.406;2023-10-08T19:08:25;20.90;99.90
28159;DHT22;15447;50.828;4.406;2023-10-08T19:10:51;20.90;99.90
28159;DHT22;15447;50.828;4.406;2023-10-08T19:13:18;20.80;99.90
28159;DHT22;15447;50.828;4.406;2023-10-08T19:15:44;20.80;99.90
28159;DHT22;15447;50.828;4.406;2023-10-08T19:18:11;20.80;99.90
28159;DHT22;15447;50.828;4.406;2023-10-08T19:20:37;20.70;99.90
28159;DHT22;15447;50.828;4.406;2023-10-08T19:23:04;20.70;99.90
28159;DHT22;15447;50.828;4.406;2023-10-08T19:25:31;20.70;99.90
28159;DHT22;15447;50.828;4.406;2023-10-08T19:27:57;20.70;99.90
28159;DHT22;15447;50.828;4.406;2023-10-08T19:30:24;20.70;99.90
28159;DHT22;15447;50.828;4.406;2023-10-08T19:32:50;20.70;99.90
28159;DHT22;15447;50.828;4.406;2023-10-08T19:35:16;20.60;99.90
28159;DHT22;15447;50.828;4.406;2023-10-08T19:37:46;20.60;99.90
28159;DHT22;15447;50.828;4.406;2023-10-08T19:40:12;20.60;99.90
28159;DHT22;15447;50.828;4.406;2023-10-08T19:42:42;20.60;99.90
28159;DHT22;15447;50.828;4.406;2023-10-08T19:45:11;20.60;99.90
28159;DHT22;15447;50.828;4.406;2023-10-08T19:47:41;20.60;99.90
28159;DHT22;15447;50.828;4.406;2023-10-08T19:50:08;20.60;99.90
28159;DHT22;15447;50.828;4.406;2023-10-08T19:52:40;20.70;99.90
28159;DHT22;15447;50.828;4.406;2023-10-08T19:55:08;20.70;99.90
28159;DHT22;15447;50.828;4.406;2023-10-08T19:57:42;20.70;99.90
28159;DHT22;15447;50.828;4.406;2023-10-08T20:00:09;20.70;99.90
28159;DHT22;15447;50.828;4.406;2023-10-08T20:02:43;20.70;99.90
28159;DHT22;15447;50.828;4.406;2023-10-08T20:05:15;20.70;99.90
28159;DHT22;15447;50.828;4.406;2023-10-08T20:07:42;20.70;99.90
28159;DHT22;15447;50.828;4.406;2023-10-08T20:10:12;20.60;99.90
28159;DHT22;15447;50.828;4.406;2023-10-08T20:12:48;20.60;99.90
28159;DHT22;15447;50.828;4.406;2023-10-08T20:15:56;20.60;99.90
28159;DHT22;15447;50.828;4.406;2023-10-08T20:21:41;20.60;99.90
28159;DHT22;15447;50.828;4.406;2023-10-08T20:24:34;20.50;99.90
28159;DHT22;15447;50.828;4.406;2023-10-08T20:27:42;20.40;99.90
28159;DHT22;15447;50.828;4.406;2023-10-08T20:30:17;20.40;99.90
28159;DHT22;15447;50.828;4.406;2023-10-08T20:39:23;20.30;99.90
28159;DHT22;15447;50.828;4.406;2023-10-08T20:42:26;20.20;99.90
28159;DHT22;15447;50.828;4.406;2023-10-08T20:48:13;20.20;99.90
28159;DHT22;15447;50.828;4.406;2023-10-08T20:54:05;20.10;99.90
28159;DHT22;15447;50.828;4.406;2023-10-08T20:56:57;20.20;99.90
28159;DHT22;15447;50.828;4.406;2023-10-08T20:59:36;20.20;99.90
28159;DHT22;15447;50.828;4.406;2023-10-08T21:02:12;20.20;99.90
28159;DHT22;15447;50.828;4.406;2023-10-08T21:04:41;20.20;99.90
28159;DHT22;15447;50.828;4.406;2023-10-08T21:10:08;20.10;99.90
28159;DHT22;15447;50.828;4.406;2023-10-08T21:12:40;20.20;99.90
28159;DHT22;15447;50.828;4.406;2023-10-08T21:15:16;20.20;99.90
28159;DHT22;15447;50.828;4.406;2023-10-08T21:17:54;20.10;99.90
